sensor_id;sensor_type;location;lat;lon;timestamp;pressure;altitude;pressure_sealevel;temperature;humidity
45763;BME280;37512;52.408;13.356;2023-01-28T00:01:59;102217.47;;;-0.89;100.00
45763;BME280;37512;52.408;13.356;2023-01-28T00:06:09;102223.19;;;-0.69;100.00
45763;BME280;37512;52.408;13.356;2023-01-28T00:10:12;102218.53;;;-0.51;100.00
45763;BME280;37512;52.408;13.356;2023-01-28T00:14:14;102212.53;;;-0.92;100.00
45763;BME280;37512;52.408;13.356;2023-01-28T00:18:15;102221.38;;;-0.63;100.00
45763;BME280;37512;52.408;13.356;2023-01-28T00:22:17;102218.97;;;-0.98;100.00
45763;BME280;37512;52.408;13.356;2023-01-28T00:26:19;102216.28;;;-1.15;100.00
45763;BME280;37512;52.408;13.356;2023-01-28T00:30:21;102220.59;;;-0.80;100.00
45763;BME280;37512;52.408;13.356;2023-01-28T00:34:23;102234.03;;;-1.47;100.00
45763;BME280;37512;52.408;13.356;2023-01-28T00:38:25;102229.16;;;-1.11;100.00
45763;BME280;37512;52.408;13.356;2023-01-28T00:42:26;102224.25;;;-0.92;100.00
45763;BME280;37512;52.408;13.356;2023-01-28T00:46:28;102222.09;;;-0.90;100.00
45763;BME280;37512;52.408;13.356;2023-01-28T00:50:29;102228.13;;;-0.88;100.00
45763;BME280;37512;52.408;13.356;2023-01-28T00:54:31;102228.72;;;-0.86;100.00
45763;BME280;37512;52.408;13.356;2023-01-28T00:58:33;102230.38;;;-1.01;100.00
45763;BME280;37512;52.408;13.356;2023-01-28T01:02:34;102242.19;;;-1.13;100.00
45763;BME280;37512;52.408;13.356;2023-01-28T01:06:38;102247.16;;;-1.10;100.00
45763;BME280;37512;52.408;13.356;2023-01-28T01:10:40;102252.53;;;-1.15;100.00
45763;BME280;37512;52.408;13.356;2023-01-28T01:14:41;102245.00;;;-1.08;100.00
45763;BME280;37512;52.408;13.356;2023-01-28T01:18:43;102248.91;;;-1.20;100.00
45763;BME280;37512;52.408;13.356;2023-01-28T01:22:44;102240.88;;;-1.10;100.00
45763;BME280;37512;52.408;13.356;2023-01-28T01:26:46;102241.28;;;-1.01;100.00
45763;BME280;37512;52.408;13.356;2023-01-28T01:30:48;102233.19;;;-0.96;100.00
45763;BME280;37512;52.408;13.356;2023-01-28T01:34:49;102238.56;;;-1.01;100.00
45763;BME280;37512;52.408;13.356;2023-01-28T01:38:55;102230.38;;;-1.01;100.00
45763;BME280;37512;52.408;13.356;2023-01-28T01:42:56;102239.22;;;-0.94;100.00
45763;BME280;37512;52.408;13.356;2023-01-28T01:46:58;102251.94;;;-1.00;100.00
45763;BME280;37512;52.408;13.356;2023-01-28T01:51:05;102252.84;;;-0.94;100.00
45763;BME280;37512;52.408;13.356;2023-01-28T01:55:13;102260.66;;;-0.81;100.00
45763;BME280;37512;52.408;13.356;2023-01-28T01:59:22;102260.44;;;-0.79;100.00
45763;BME280;37512;52.408;13.356;2023-01-28T02:03:28;102256.31;;;-0.82;100.00
45763;BME280;37512;52.408;13.356;2023-01-28T02:07:32;102257.69;;;-0.79;100.00
45763;BME280;37512;52.408;13.356;2023-01-28T02:11:35;102262.56;;;-0.81;100.00
45763;BME280;37512;52.408;13.356;2023-01-28T02:15:37;102269.66;;;-0.64;100.00
45763;BME280;37512;52.408;13.356;2023-01-28T02:24:23;102262.56;;;-0.43;100.00
45763;BME280;37512;52.408;13.356;2023-01-28T02:32:58;102256.47;;;-0.50;100.00
45763;BME280;37512;52.408;13.356;2023-01-28T02:37:06;102259.94;;;-0.32;100.00
45763;BME280;37512;52.408;13.356;2023-01-28T02:41:16;102258.13;;;-0.27;100.00
45763;BME280;37512;52.408;13.356;2023-01-28T02:45:34;102266.16;;;-0.59;100.00
45763;BME280;37512;52.408;13.356;2023-01-28T02:49:58;102258.75;;;-0.42;100.00
45763;BME280;37512;52.408;13.356;2023-01-28T02:54:16;102257.34;;;-0.44;100.00
45763;BME280;37512;52.408;13.356;2023-01-28T02:58:29;102260.84;;;-0.49;100.00
45763;BME280;37512;52.408;13.356;2023-01-28T03:02:36;102265.09;;;-0.36;100.00
45763;BME280;37512;52.408;13.356;2023-01-28T03:06:46;102272.63;;;-0.21;100.00
45763;BME280;37512;52.408;13.356;2023-01-28T03:10:52;102265.00;;;-0.63;100.00
45763;BME280;37512;52.408;13.356;2023-01-28T03:15:18;102263.81;;;-0.50;100.00
45763;BME280;37512;52.408;13.356;2023-01-28T03:19:39;102277.06;;;-0.37;100.00
45763;BME280;37512;52.408;13.356;2023-01-28T03:24:00;102266.56;;;-0.28;100.00
45763;BME280;37512;52.408;13.356;2023-01-28T03:28:22;102256.53;;;-0.45;100.00
45763;BME280;37512;52.408;13.356;2023-01-28T03:32:43;102269.78;;;-0.53;100.00
45763;BME280;37512;52.408;13.356;2023-01-28T03:37:03;102266.41;;;-0.16;100.00
45763;BME280;37512;52.408;13.356;2023-01-28T03:41:05;102261.34;;;-0.30;100.00
45763;BME280;37512;52.408;13.356;2023-01-28T03:45:07;102255.59;;;-0.11;100.00
45763;BME280;37512;52.408;13.356;2023-01-28T03:49:08;102261.16;;;-0.23;100.00
45763;BME280;37512;52.408;13.356;2023-01-28T03:53:10;102257.59;;;-0.24;100.00
45763;BME280;37512;52.408;13.356;2023-01-28T03:57:20;102258.81;;;-0.14;100.00
45763;BME280;37512;52.408;13.356;2023-01-28T04:01:22;102257.28;;;-0.05;100.00
45763;BME280;37512;52.408;13.356;2023-01-28T04:05:24;102253.34;;;-0.14;100.00
45763;BME280;37512;52.408;13.356;2023-01-28T04:09:26;102258.97;;;0.01;100.00
45763;BME280;37512;52.408;13.356;2023-01-28T04:13:27;102252.72;;;0.01;100.00
45763;BME280;37512;52.408;13.356;2023-01-28T04:17:29;102252.56;;;-0.10;100.00
45763;BME280;37512;52.408;13.356;2023-01-28T04:21:30;102259.19;;;-0.06;100.00
45763;BME280;37512;52.408;13.356;2023-01-28T04:25:33;102261.75;;;0.06;100.00
45763;BME280;37512;52.408;13.356;2023-01-28T04:29:34;102268.72;;;-0.08;100.00
45763;BME280;37512;52.408;13.356;2023-01-28T04:33:36;102262.88;;;-0.17;100.00
45763;BME280;37512;52.408;13.356;2023-01-28T04:37:40;102273.66;;;-0.05;100.00
45763;BME280;37512;52.408;13.356;2023-01-28T04:41:41;102270.91;;;-0.05;100.00
45763;BME280;37512;52.408;13.356;2023-01-28T04:45:43;102275.81;;;-0.07;100.00
45763;BME280;37512;52.408;13.356;2023-01-28T04:49:44;102265.34;;;-0.15;99.93
45763;BME280;37512;52.408;13.356;2023-01-28T04:53:45;102272.00;;;-0.06;99.89
45763;BME280;37512;52.408;13.356;2023-01-28T04:57:47;102267.22;;;0.06;100.00
45763;BME280;37512;52.408;13.356;2023-01-28T05:01:49;102267.56;;;0.10;100.00
45763;BME280;37512;52.408;13.356;2023-01-28T05:05:50;102272.97;;;-0.17;100.00
45763;BME280;37512;52.408;13.356;2023-01-28T05:09:52;102277.91;;;0.08;100.00
45763;BME280;37512;52.408;13.356;2023-01-28T05:13:53;102272.25;;;0.14;100.00
45763;BME280;37512;52.408;13.356;2023-01-28T05:17:55;102283.59;;;0.06;100.00
45763;BME280;37512;52.408;13.356;2023-01-28T05:21:57;102287.72;;;0.09;100.00
45763;BME280;37512;52.408;13.356;2023-01-28T05:25:58;102297.81;;;0.08;97.39
45763;BME280;37512;52.408;13.356;2023-01-28T05:30:00;102296.03;;;0.19;97.05
45763;BME280;37512;52.408;13.356;2023-01-28T05:34:01;102288.09;;;0.17;96.95
45763;BME280;37512;52.408;13.356;2023-01-28T05:38:04;102288.78;;;0.30;95.91
45763;BME280;37512;52.408;13.356;2023-01-28T05:42:05;102290.38;;;0.26;95.48
45763;BME280;37512;52.408;13.356;2023-01-28T05:46:07;102287.16;;;0.34;96.64
45763;BME280;37512;52.408;13.356;2023-01-28T05:50:09;102282.59;;;0.39;94.18
45763;BME280;37512;52.408;13.356;2023-01-28T05:54:13;102290.69;;;0.29;93.66
45763;BME280;37512;52.408;13.356;2023-01-28T05:58:15;102292.53;;;0.24;94.91
45763;BME280;37512;52.408;13.356;2023-01-28T06:02:17;102293.69;;;0.28;95.07
45763;BME280;37512;52.408;13.356;2023-01-28T06:06:18;102292.13;;;0.37;93.48
45763;BME280;37512;52.408;13.356;2023-01-28T06:10:20;102296.47;;;0.33;94.67
45763;BME280;37512;52.408;13.356;2023-01-28T06:14:21;102294.38;;;0.45;93.22
45763;BME280;37512;52.408;13.356;2023-01-28T06:18:23;102296.31;;;0.45;91.71
45763;BME280;37512;52.408;13.356;2023-01-28T06:22:24;102293.50;;;0.12;91.21
45763;BME280;37512;52.408;13.356;2023-01-28T06:26:26;102296.88;;;0.47;91.37
45763;BME280;37512;52.408;13.356;2023-01-28T06:30:27;102299.97;;;0.55;92.11
45763;BME280;37512;52.408;13.356;2023-01-28T06:34:28;102308.13;;;0.50;95.00
45763;BME280;37512;52.408;13.356;2023-01-28T06:38:30;102301.34;;;0.31;95.76
45763;BME280;37512;52.408;13.356;2023-01-28T06:42:31;102300.88;;;0.12;97.10
45763;BME280;37512;52.408;13.356;2023-01-28T06:46:33;102315.03;;;-0.35;98.93
45763;BME280;37512;52.408;13.356;2023-01-28T06:50:34;102305.06;;;0.19;99.90
45763;BME280;37512;52.408;13.356;2023-01-28T06:54:36;102306.41;;;-0.27;98.49
45763;BME280;37512;52.408;13.356;2023-01-28T06:58:37;102318.47;;;-0.01;96.16
45763;BME280;37512;52.408;13.356;2023-01-28T07:02:39;102305.63;;;0.22;97.51
45763;BME280;37512;52.408;13.356;2023-01-28T07:06:40;102309.75;;;0.02;96.85
45763;BME280;37512;52.408;13.356;2023-01-28T07:10:42;102322.38;;;0.30;89.71
45763;BME280;37512;52.408;13.356;2023-01-28T07:14:44;102314.84;;;0.43;88.18
45763;BME280;37512;52.408;13.356;2023-01-28T07:18:45;102314.59;;;0.44;88.70
45763;BME280;37512;52.408;13.356;2023-01-28T07:22:47;102316.56;;;0.22;87.51
45763;BME280;37512;52.408;13.356;2023-01-28T07:26:49;102319.78;;;0.46;86.78
45763;BME280;37512;52.408;13.356;2023-01-28T07:30:50;102324.44;;;0.45;84.05
45763;BME280;37512;52.408;13.356;2023-01-28T07:34:54;102317.34;;;0.44;85.97
45763;BME280;37512;52.408;13.356;2023-01-28T07:38:55;102317.13;;;0.24;88.03
45763;BME280;37512;52.408;13.356;2023-01-28T07:42:57;102315.69;;;0.43;88.13
45763;BME280;37512;52.408;13.356;2023-01-28T07:46:58;102319.66;;;0.57;86.82
45763;BME280;37512;52.408;13.356;2023-01-28T07:51:00;102316.94;;;0.57;86.64
45763;BME280;37512;52.408;13.356;2023-01-28T07:55:01;102324.97;;;0.42;88.61
45763;BME280;37512;52.408;13.356;2023-01-28T07:59:03;102317.75;;;0.58;88.29
45763;BME280;37512;52.408;13.356;2023-01-28T08:03:12;102323.03;;;0.70;88.96
45763;BME280;37512;52.408;13.356;2023-01-28T08:07:17;102326.44;;;0.82;86.52
45763;BME280;37512;52.408;13.356;2023-01-28T08:11:18;102328.50;;;0.70;83.34
45763;BME280;37512;52.408;13.356;2023-01-28T08:15:21;102334.50;;;0.67;80.28
45763;BME280;37512;52.408;13.356;2023-01-28T08:19:23;102332.34;;;0.69;81.00
45763;BME280;37512;52.408;13.356;2023-01-28T08:23:26;102338.06;;;0.67;78.62
45763;BME280;37512;52.408;13.356;2023-01-28T08:27:27;102349.53;;;0.64;79.23
45763;BME280;37512;52.408;13.356;2023-01-28T08:31:29;102344.66;;;0.71;79.77
45763;BME280;37512;52.408;13.356;2023-01-28T08:35:31;102353.25;;;0.85;77.81
45763;BME280;37512;52.408;13.356;2023-01-28T08:39:33;102355.59;;;0.71;79.46
45763;BME280;37512;52.408;13.356;2023-01-28T08:43:35;102365.38;;;0.67;78.63
45763;BME280;37512;52.408;13.356;2023-01-28T08:47:36;102362.75;;;0.77;77.12
45763;BME280;37512;52.408;13.356;2023-01-28T08:51:47;102366.94;;;0.85;77.41
45763;BME280;37512;52.408;13.356;2023-01-28T08:55:49;102373.00;;;0.92;79.81
45763;BME280;37512;52.408;13.356;2023-01-28T08:59:50;102366.94;;;0.85;77.92
45763;BME280;37512;52.408;13.356;2023-01-28T09:03:52;102381.41;;;0.86;77.73
45763;BME280;37512;52.408;13.356;2023-01-28T09:07:53;102380.19;;;0.98;78.14
45763;BME280;37512;52.408;13.356;2023-01-28T09:11:55;102381.03;;;1.04;79.21
45763;BME280;37512;52.408;13.356;2023-01-28T09:15:56;102390.03;;;0.99;79.12
45763;BME280;37512;52.408;13.356;2023-01-28T09:19:58;102391.16;;;1.03;79.12
45763;BME280;37512;52.408;13.356;2023-01-28T09:23:59;102395.28;;;1.06;78.50
45763;BME280;37512;52.408;13.356;2023-01-28T09:28:01;102409.28;;;1.10;73.88
45763;BME280;37512;52.408;13.356;2023-01-28T09:32:03;102415.00;;;1.08;73.05
45763;BME280;37512;52.408;13.356;2023-01-28T09:36:07;102403.75;;;0.50;73.87
45763;BME280;37512;52.408;13.356;2023-01-28T09:40:20;102410.16;;;0.88;73.85
45763;BME280;37512;52.408;13.356;2023-01-28T09:44:42;102410.69;;;1.17;70.68
45763;BME280;37512;52.408;13.356;2023-01-28T09:48:48;102405.09;;;1.02;73.07
45763;BME280;37512;52.408;13.356;2023-01-28T09:52:54;102409.81;;;1.12;71.62
45763;BME280;37512;52.408;13.356;2023-01-28T09:57:08;102413.25;;;1.29;71.64
45763;BME280;37512;52.408;13.356;2023-01-28T10:05:48;102419.56;;;1.67;71.67
45763;BME280;37512;52.408;13.356;2023-01-28T10:18:42;102409.22;;;1.74;70.62
45763;BME280;37512;52.408;13.356;2023-01-28T10:22:57;102413.53;;;1.65;70.56
45763;BME280;37512;52.408;13.356;2023-01-28T10:27:07;102405.94;;;1.77;70.80
45763;BME280;37512;52.408;13.356;2023-01-28T10:31:13;102402.59;;;1.65;69.64
45763;BME280;37512;52.408;13.356;2023-01-28T10:35:15;102395.66;;;1.57;69.44
45763;BME280;37512;52.408;13.356;2023-01-28T10:39:20;102393.44;;;1.49;69.71
45763;BME280;37512;52.408;13.356;2023-01-28T10:43:23;102388.78;;;1.50;70.59
45763;BME280;37512;52.408;13.356;2023-01-28T10:47:43;102402.63;;;1.70;71.05
45763;BME280;37512;52.408;13.356;2023-01-28T10:51:45;102390.03;;;1.69;69.82
45763;BME280;37512;52.408;13.356;2023-01-28T10:55:53;102389.38;;;1.57;69.70
45763;BME280;37512;52.408;13.356;2023-01-28T10:59:56;102397.03;;;1.55;69.45
45763;BME280;37512;52.408;13.356;2023-01-28T11:03:57;102393.22;;;1.56;68.74
45763;BME280;37512;52.408;13.356;2023-01-28T11:08:12;102393.66;;;1.42;70.03
45763;BME280;37512;52.408;13.356;2023-01-28T11:12:24;102394.94;;;1.67;68.25
45763;BME280;37512;52.408;13.356;2023-01-28T11:16:27;102384.88;;;1.35;68.88
45763;BME280;37512;52.408;13.356;2023-01-28T11:20:34;102389.59;;;1.50;69.04
45763;BME280;37512;52.408;13.356;2023-01-28T11:24:37;102381.16;;;1.52;68.66
45763;BME280;37512;52.408;13.356;2023-01-28T11:28:42;102386.94;;;1.60;67.51
45763;BME280;37512;52.408;13.356;2023-01-28T11:32:44;102378.56;;;1.77;70.66
45763;BME280;37512;52.408;13.356;2023-01-28T11:36:52;102377.38;;;1.63;70.39
45763;BME280;37512;52.408;13.356;2023-01-28T11:40:56;102374.03;;;1.51;71.70
45763;BME280;37512;52.408;13.356;2023-01-28T11:44:58;102376.44;;;1.42;73.17
45763;BME280;37512;52.408;13.356;2023-01-28T11:53:32;102356.56;;;1.19;75.32
45763;BME280;37512;52.408;13.356;2023-01-28T12:02:24;102345.69;;;0.65;86.53
45763;BME280;37512;52.408;13.356;2023-01-28T12:37:26;102348.19;;;1.79;79.73
45763;BME280;37512;52.408;13.356;2023-01-28T12:41:35;102340.78;;;1.79;79.25
45763;BME280;37512;52.408;13.356;2023-01-28T12:45:44;102348.53;;;1.93;78.20
45763;BME280;37512;52.408;13.356;2023-01-28T12:49:52;102335.19;;;1.54;80.39
45763;BME280;37512;52.408;13.356;2023-01-28T12:54:09;102331.53;;;1.85;80.75
45763;BME280;37512;52.408;13.356;2023-01-28T12:58:20;102341.91;;;1.83;81.75
45763;BME280;37512;52.408;13.356;2023-01-28T13:02:30;102330.06;;;1.67;82.54
45763;BME280;37512;52.408;13.356;2023-01-28T13:06:41;102332.59;;;1.84;81.12
45763;BME280;37512;52.408;13.356;2023-01-28T13:10:46;102322.75;;;1.83;84.00
45763;BME280;37512;52.408;13.356;2023-01-28T13:14:48;102326.06;;;1.85;85.66
45763;BME280;37512;52.408;13.356;2023-01-28T13:23:27;102304.06;;;1.65;83.91
45763;BME280;37512;52.408;13.356;2023-01-28T13:27:36;102299.66;;;1.64;83.28
45763;BME280;37512;52.408;13.356;2023-01-28T13:31:43;102289.13;;;1.40;83.94
45763;BME280;37512;52.408;13.356;2023-01-28T13:35:52;102299.06;;;1.57;82.25
45763;BME280;37512;52.408;13.356;2023-01-28T13:40:01;102297.50;;;1.23;83.75
45763;BME280;37512;52.408;13.356;2023-01-28T13:44:03;102298.34;;;1.24;83.95
45763;BME280;37512;52.408;13.356;2023-01-28T13:52:25;102287.31;;;1.61;84.39
45763;BME280;37512;52.408;13.356;2023-01-28T13:56:31;102291.41;;;1.59;85.21
45763;BME280;37512;52.408;13.356;2023-01-28T14:05:20;102291.97;;;1.61;82.33
45763;BME280;37512;52.408;13.356;2023-01-28T14:18:25;102285.03;;;1.43;71.93
45763;BME280;37512;52.408;13.356;2023-01-28T14:22:27;102281.34;;;1.22;71.01
45763;BME280;37512;52.408;13.356;2023-01-28T14:27:01;102273.59;;;1.46;70.04
45763;BME280;37512;52.408;13.356;2023-01-28T14:31:13;102256.63;;;1.49;68.71
45763;BME280;37512;52.408;13.356;2023-01-28T14:35:33;102255.63;;;1.18;70.92
45763;BME280;37512;52.408;13.356;2023-01-28T14:39:47;102256.28;;;1.35;73.28
45763;BME280;37512;52.408;13.356;2023-01-28T14:43:53;102278.13;;;1.30;77.59
45763;BME280;37512;52.408;13.356;2023-01-28T14:52:22;102291.59;;;0.99;77.87
45763;BME280;37512;52.408;13.356;2023-01-28T15:00:52;102293.69;;;0.28;76.04
45763;BME280;37512;52.408;13.356;2023-01-28T15:05:06;102291.28;;;0.36;77.31
45763;BME280;37512;52.408;13.356;2023-01-28T15:09:12;102293.69;;;0.87;77.88
45763;BME280;37512;52.408;13.356;2023-01-28T15:13:28;102290.78;;;0.39;81.22
45763;BME280;37512;52.408;13.356;2023-01-28T15:17:30;102301.34;;;0.58;79.30
45763;BME280;37512;52.408;13.356;2023-01-28T15:21:32;102307.09;;;0.61;76.53
45763;BME280;37512;52.408;13.356;2023-01-28T15:25:35;102292.91;;;0.59;74.30
45763;BME280;37512;52.408;13.356;2023-01-28T15:29:37;102297.69;;;0.47;75.29
45763;BME280;37512;52.408;13.356;2023-01-28T15:33:38;102298.88;;;0.56;76.24
45763;BME280;37512;52.408;13.356;2023-01-28T15:37:40;102284.81;;;0.75;81.96
45763;BME280;37512;52.408;13.356;2023-01-28T15:41:45;102300.22;;;0.27;78.54
45763;BME280;37512;52.408;13.356;2023-01-28T15:45:48;102302.28;;;0.41;77.58
45763;BME280;37512;52.408;13.356;2023-01-28T15:49:54;102293.50;;;0.67;78.84
45763;BME280;37512;52.408;13.356;2023-01-28T15:54:00;102302.88;;;0.44;78.74
45763;BME280;37512;52.408;13.356;2023-01-28T15:58:29;102306.50;;;0.54;77.27
45763;BME280;37512;52.408;13.356;2023-01-28T16:02:31;102314.31;;;0.73;76.79
45763;BME280;37512;52.408;13.356;2023-01-28T16:06:36;102311.47;;;0.57;77.27
45763;BME280;37512;52.408;13.356;2023-01-28T16:10:38;102327.38;;;0.66;77.43
45763;BME280;37512;52.408;13.356;2023-01-28T16:14:45;102324.84;;;0.59;79.89
45763;BME280;37512;52.408;13.356;2023-01-28T16:18:52;102324.03;;;0.58;80.85
45763;BME280;37512;52.408;13.356;2023-01-28T16:22:58;102317.75;;;0.58;80.04
45763;BME280;37512;52.408;13.356;2023-01-28T16:27:03;102314.19;;;0.57;81.23
45763;BME280;37512;52.408;13.356;2023-01-28T16:31:05;102319.59;;;0.25;84.06
45763;BME280;37512;52.408;13.356;2023-01-28T16:35:18;102303.75;;;0.54;83.01
45763;BME280;37512;52.408;13.356;2023-01-28T16:39:20;102297.81;;;0.08;83.91
45763;BME280;37512;52.408;13.356;2023-01-28T16:43:21;102307.69;;;0.09;83.85
45763;BME280;37512;52.408;13.356;2023-01-28T16:47:23;102315.19;;;0.46;81.93
45763;BME280;37512;52.408;13.356;2023-01-28T16:51:25;102313.00;;;0.21;81.70
45763;BME280;37512;52.408;13.356;2023-01-28T16:55:26;102326.56;;;0.16;82.23
45763;BME280;37512;52.408;13.356;2023-01-28T16:59:28;102324.31;;;0.30;81.52
45763;BME280;37512;52.408;13.356;2023-01-28T17:03:30;102324.72;;;0.44;85.69
45763;BME280;37512;52.408;13.356;2023-01-28T17:07:31;102339.44;;;0.43;80.97
45763;BME280;37512;52.408;13.356;2023-01-28T17:11:33;102342.06;;;-0.12;82.92
45763;BME280;37512;52.408;13.356;2023-01-28T17:15:35;102358.47;;;0.32;81.82
45763;BME280;37512;52.408;13.356;2023-01-28T17:19:36;102353.88;;;0.16;80.52
45763;BME280;37512;52.408;13.356;2023-01-28T17:23:38;102365.88;;;0.37;81.49
45763;BME280;37512;52.408;13.356;2023-01-28T17:27:39;102363.16;;;0.37;81.62
45763;BME280;37512;52.408;13.356;2023-01-28T17:31:41;102375.84;;;0.48;82.70
45763;BME280;37512;52.408;13.356;2023-01-28T17:35:45;102383.81;;;0.28;80.71
45763;BME280;37512;52.408;13.356;2023-01-28T17:39:47;102380.88;;;0.12;81.84
45763;BME280;37512;52.408;13.356;2023-01-28T17:43:50;102386.53;;;0.06;80.70
45763;BME280;37512;52.408;13.356;2023-01-28T17:47:51;102383.44;;;0.19;79.29
45763;BME280;37512;52.408;13.356;2023-01-28T17:51:54;102373.00;;;0.16;79.28
45763;BME280;37512;52.408;13.356;2023-01-28T17:55:55;102380.03;;;-0.10;80.98
45763;BME280;37512;52.408;13.356;2023-01-28T17:59:57;102362.97;;;-0.01;80.52
45763;BME280;37512;52.408;13.356;2023-01-28T18:03:59;102348.81;;;0.03;81.50
45763;BME280;37512;52.408;13.356;2023-01-28T18:08:00;102371.66;;;-0.04;80.54
45763;BME280;37512;52.408;13.356;2023-01-28T18:12:02;102369.97;;;0.12;80.59
45763;BME280;37512;52.408;13.356;2023-01-28T18:16:06;102376.88;;;0.20;80.69
45763;BME280;37512;52.408;13.356;2023-01-28T18:20:08;102381.84;;;0.01;81.12
45763;BME280;37512;52.408;13.356;2023-01-28T18:24:11;102371.06;;;-0.28;82.68
45763;BME280;37512;52.408;13.356;2023-01-28T18:28:12;102367.66;;;0.04;81.13
45763;BME280;37512;52.408;13.356;2023-01-28T18:32:14;102368.59;;;-0.07;83.09
45763;BME280;37512;52.408;13.356;2023-01-28T18:36:15;102349.03;;;-0.43;84.33
45763;BME280;37512;52.408;13.356;2023-01-28T18:40:17;102362.16;;;-0.40;84.73
45763;BME280;37512;52.408;13.356;2023-01-28T18:44:19;102370.53;;;-0.47;84.25
45763;BME280;37512;52.408;13.356;2023-01-28T18:48:21;102363.44;;;-0.48;85.24
45763;BME280;37512;52.408;13.356;2023-01-28T18:52:22;102370.38;;;-0.57;86.05
45763;BME280;37512;52.408;13.356;2023-01-28T18:56:24;102367.47;;;-0.67;86.61
45763;BME280;37512;52.408;13.356;2023-01-28T19:00:26;102369.13;;;-0.83;88.32
45763;BME280;37512;52.408;13.356;2023-01-28T19:04:27;102375.91;;;-0.69;88.65
45763;BME280;37512;52.408;13.356;2023-01-28T19:08:29;102384.03;;;-0.57;89.20
45763;BME280;37512;52.408;13.356;2023-01-28T19:12:31;102359.66;;;-0.64;89.25
45763;BME280;37512;52.408;13.356;2023-01-28T19:16:32;102356.41;;;-0.60;89.83
45763;BME280;37512;52.408;13.356;2023-01-28T19:20:35;102364.50;;;-0.49;89.94
45763;BME280;37512;52.408;13.356;2023-01-28T19:24:37;102362.69;;;-0.60;89.89
45763;BME280;37512;52.408;13.356;2023-01-28T19:28:38;102362.44;;;-0.75;91.03
45763;BME280;37512;52.408;13.356;2023-01-28T19:32:40;102373.69;;;-0.89;92.29
45763;BME280;37512;52.408;13.356;2023-01-28T19:36:41;102356.81;;;-0.69;92.38
45763;BME280;37512;52.408;13.356;2023-01-28T19:40:43;102347.81;;;-1.03;94.22
45763;BME280;37512;52.408;13.356;2023-01-28T19:44:45;102362.59;;;-1.16;96.70
45763;BME280;37512;52.408;13.356;2023-01-28T19:48:46;102353.03;;;-0.85;98.20
45763;BME280;37512;52.408;13.356;2023-01-28T19:52:48;102353.53;;;-1.04;96.65
45763;BME280;37512;52.408;13.356;2023-01-28T19:56:49;102349.63;;;-0.92;100.00
45763;BME280;37512;52.408;13.356;2023-01-28T20:00:51;102366.31;;;-1.05;100.00
45763;BME280;37512;52.408;13.356;2023-01-28T20:04:53;102368.50;;;-1.36;100.00
45763;BME280;37512;52.408;13.356;2023-01-28T20:09:07;102377.69;;;-1.25;100.00
45763;BME280;37512;52.408;13.356;2023-01-28T20:13:09;102388.84;;;-1.10;100.00
45763;BME280;37512;52.408;13.356;2023-01-28T20:17:11;102395.06;;;-0.97;100.00
45763;BME280;37512;52.408;13.356;2023-01-28T20:21:12;102392.75;;;-1.06;100.00
45763;BME280;37512;52.408;13.356;2023-01-28T20:25:14;102389.63;;;-0.80;100.00
45763;BME280;37512;52.408;13.356;2023-01-28T20:29:17;102378.22;;;-0.94;100.00
45763;BME280;37512;52.408;13.356;2023-01-28T20:33:20;102379.53;;;-1.14;100.00
45763;BME280;37512;52.408;13.356;2023-01-28T20:37:21;102371.75;;;-1.05;100.00
45763;BME280;37512;52.408;13.356;2023-01-28T20:41:24;102365.63;;;-1.29;100.00
45763;BME280;37512;52.408;13.356;2023-01-28T20:45:26;102367.63;;;-1.53;100.00
45763;BME280;37512;52.408;13.356;2023-01-28T20:49:29;102367.63;;;-1.53;100.00
45763;BME280;37512;52.408;13.356;2023-01-28T20:53:30;102372.94;;;-1.75;100.00
45763;BME280;37512;52.408;13.356;2023-01-28T20:57:33;102368.25;;;-1.63;100.00
45763;BME280;37512;52.408;13.356;2023-01-28T21:01:35;102361.56;;;-1.43;100.00
45763;BME280;37512;52.408;13.356;2023-01-28T21:05:37;102357.72;;;-1.59;100.00
45763;BME280;37512;52.408;13.356;2023-01-28T21:09:38;102369.06;;;-1.91;100.00
45763;BME280;37512;52.408;13.356;2023-01-28T21:13:40;102364.00;;;-1.99;100.00
45763;BME280;37512;52.408;13.356;2023-01-28T21:17:41;102361.03;;;-1.98;100.00
45763;BME280;37512;52.408;13.356;2023-01-28T21:21:43;102361.91;;;-1.69;100.00
45763;BME280;37512;52.408;13.356;2023-01-28T21:25:45;102351.69;;;-2.02;100.00
45763;BME280;37512;52.408;13.356;2023-01-28T21:29:47;102342.63;;;-2.07;100.00
45763;BME280;37512;52.408;13.356;2023-01-28T21:33:50;102347.34;;;-2.26;100.00
45763;BME280;37512;52.408;13.356;2023-01-28T21:37:51;102356.69;;;-2.22;100.00
45763;BME280;37512;52.408;13.356;2023-01-28T21:41:53;102354.69;;;-2.27;100.00
45763;BME280;37512;52.408;13.356;2023-01-28T21:45:55;102347.97;;;-2.36;100.00
45763;BME280;37512;52.408;13.356;2023-01-28T21:49:57;102347.81;;;-2.18;100.00
45763;BME280;37512;52.408;13.356;2023-01-28T21:54:06;102351.75;;;-2.25;100.00
45763;BME280;37512;52.408;13.356;2023-01-28T21:58:08;102353.63;;;-2.38;100.00
45763;BME280;37512;52.408;13.356;2023-01-28T22:02:29;102343.69;;;-2.20;100.00
45763;BME280;37512;52.408;13.356;2023-01-28T22:06:31;102342.91;;;-2.56;100.00
45763;BME280;37512;52.408;13.356;2023-01-28T22:10:34;102332.03;;;-2.56;100.00
45763;BME280;37512;52.408;13.356;2023-01-28T22:14:37;102337.47;;;-2.91;100.00
45763;BME280;37512;52.408;13.356;2023-01-28T22:18:39;102336.97;;;-2.65;100.00
45763;BME280;37512;52.408;13.356;2023-01-28T22:22:41;102329.91;;;-2.66;100.00
45763;BME280;37512;52.408;13.356;2023-01-28T22:26:43;102328.94;;;-2.71;100.00
45763;BME280;37512;52.408;13.356;2023-01-28T22:30:45;102328.13;;;-2.60;100.00
45763;BME280;37512;52.408;13.356;2023-01-28T22:34:47;102334.63;;;-2.61;100.00
45763;BME280;37512;52.408;13.356;2023-01-28T22:38:48;102317.84;;;-2.82;100.00